createdAt,value
2022-09-23T00:00:12.396Z,26.77
2022-09-23T00:02:41.265Z,23.80
2022-09-23T00:05:11.663Z,20.80
2022-09-23T00:07:40.338Z,27.97
2022-09-23T00:10:11.279Z,19.23
2022-09-23T00:12:39.943Z,19.07
2022-09-23T00:15:11.383Z,13.13
2022-09-23T00:17:40.726Z,21.93
2022-09-23T00:20:10.942Z,22.37
2022-09-23T00:22:39.720Z,35.73
2022-09-23T00:25:11.684Z,26.17
2022-09-23T00:27:42.237Z,17.50
2022-09-23T00:30:12.164Z,14.33
2022-09-23T00:32:40.979Z,16.73
2022-09-23T00:35:10.933Z,12.63
2022-09-23T00:37:39.633Z,16.60
2022-09-23T00:40:12.704Z,13.60
2022-09-23T00:42:48.255Z,13.63
2022-09-23T00:45:17.943Z,12.43
2022-09-23T00:47:49.375Z,13.90
2022-09-23T00:50:25.052Z,11.23
2022-09-23T00:52:56.973Z,10.07
2022-09-23T00:55:31.035Z,12.53
2022-09-23T00:58:01.763Z,13.83
2022-09-23T01:00:30.499Z,16.30
2022-09-23T01:03:00.150Z,24.03
2022-09-23T01:05:29.003Z,28.10
2022-09-23T01:07:59.264Z,29.70
2022-09-23T01:10:37.429Z,25.13
2022-09-23T01:13:16.427Z,27.70
2022-09-23T01:15:53.011Z,26.47
2022-09-23T01:18:33.394Z,60.50
2022-09-23T01:21:16.927Z,74.10
2022-09-23T01:24:24.663Z,45.23
2022-09-23T01:27:16.676Z,30.70
2022-09-23T01:30:09.866Z,21.67
2022-09-23T01:33:09.639Z,21.50
2022-09-23T01:36:00.596Z,20.10
2022-09-23T01:38:38.743Z,21.23
2022-09-23T01:41:34.738Z,17.07
2022-09-23T01:44:08.412Z,16.37
2022-09-23T01:46:43.530Z,18.37
2022-09-23T01:49:20.398Z,17.47
2022-09-23T01:51:54.475Z,13.03
2022-09-23T01:54:30.096Z,16.90
2022-09-23T01:57:03.909Z,13.10
2022-09-23T01:59:37.517Z,14.47
2022-09-23T02:02:10.554Z,18.87
2022-09-23T02:04:47.435Z,19.40
2022-09-23T02:07:21.959Z,25.73
2022-09-23T02:09:55.034Z,34.00
2022-09-23T02:12:28.777Z,30.13
2022-09-23T02:15:05.808Z,28.00
2022-09-23T02:17:39.850Z,28.27
2022-09-23T02:20:12.765Z,31.47
2022-09-23T02:22:46.511Z,39.30
2022-09-23T02:25:16.551Z,44.77
2022-09-23T02:27:55.651Z,35.23
2022-09-23T02:30:28.193Z,32.30
2022-09-23T02:33:04.639Z,31.67
2022-09-23T02:35:40.538Z,33.33
2022-09-23T02:38:21.846Z,32.90
2022-09-23T02:41:00.296Z,34.13
2022-09-23T02:43:34.067Z,29.07
2022-09-23T02:46:03.477Z,31.53
2022-09-23T02:48:36.155Z,31.07
2022-09-23T02:51:06.774Z,30.30
2022-09-23T02:53:36.783Z,23.47
2022-09-23T02:56:16.570Z,25.10
2022-09-23T02:58:47.160Z,17.70
2022-09-23T03:01:28.009Z,19.37
2022-09-23T03:04:07.910Z,19.17
2022-09-23T03:06:49.501Z,20.60
2022-09-23T03:09:24.572Z,21.60
2022-09-23T03:12:06.262Z,24.50
2022-09-23T03:14:45.141Z,32.33
2022-09-23T03:17:38.631Z,34.37
2022-09-23T03:20:14.054Z,37.80
2022-09-23T03:22:48.783Z,49.07
2022-09-23T03:25:22.631Z,40.93
2022-09-23T03:27:52.225Z,48.00
2022-09-23T03:30:21.875Z,38.90
2022-09-23T03:32:52.551Z,33.00
2022-09-23T03:35:24.584Z,36.83
2022-09-23T03:38:00.748Z,36.60
2022-09-23T03:40:32.082Z,41.93
2022-09-23T03:43:02.883Z,39.10
2022-09-23T03:45:34.114Z,43.27
2022-09-23T03:48:03.473Z,32.10
2022-09-23T03:50:32.108Z,29.77
2022-09-23T03:53:02.131Z,21.97
2022-09-23T03:55:31.542Z,24.17
2022-09-23T03:58:00.811Z,17.70
2022-09-23T04:00:29.503Z,36.53
2022-09-23T04:02:58.246Z,35.43
2022-09-23T04:05:26.862Z,26.53
2022-09-23T04:07:55.907Z,24.87
2022-09-23T04:10:25.935Z,22.60
2022-09-23T04:12:54.755Z,17.33
2022-09-23T04:15:23.458Z,15.33
2022-09-23T04:17:52.172Z,29.67
2022-09-23T04:20:20.850Z,35.60
2022-09-23T04:22:49.481Z,25.57
2022-09-23T04:25:18.243Z,19.60
2022-09-23T04:27:48.320Z,22.23
2022-09-23T04:30:18.996Z,23.00
2022-09-23T04:33:06.749Z,35.90
2022-09-23T04:35:39.960Z,45.00
2022-09-23T04:38:10.316Z,33.10
2022-09-23T04:40:39.747Z,30.67
2022-09-23T04:43:13.486Z,30.43
2022-09-23T04:45:42.334Z,29.10
2022-09-23T04:48:11.587Z,26.50
2022-09-23T04:50:40.917Z,28.50
2022-09-23T04:53:09.752Z,75.50
2022-09-23T04:55:38.415Z,43.63
2022-09-23T04:58:07.811Z,28.90
2022-09-23T05:00:38.170Z,32.60
2022-09-23T05:03:06.925Z,30.27
2022-09-23T05:05:35.470Z,29.20
2022-09-23T05:08:04.307Z,25.03
2022-09-23T05:10:32.991Z,25.77
2022-09-23T05:13:01.637Z,23.90
2022-09-23T05:15:30.361Z,23.53
2022-09-23T05:18:00.778Z,29.23
2022-09-23T05:20:29.588Z,27.13
2022-09-23T05:22:58.734Z,35.60
2022-09-23T05:25:27.443Z,28.40
2022-09-23T05:27:56.430Z,30.37
2022-09-23T05:30:25.285Z,30.80
2022-09-23T05:32:54.352Z,38.83
2022-09-23T05:35:24.505Z,52.93
2022-09-23T05:37:53.220Z,48.47
2022-09-23T05:40:21.918Z,44.67
2022-09-23T05:42:51.646Z,38.70
2022-09-23T05:45:20.434Z,55.30
2022-09-23T05:47:49.158Z,44.37
2022-09-23T05:50:18.036Z,43.20
2022-09-23T05:52:48.011Z,36.70
2022-09-23T05:55:16.975Z,34.80
2022-09-23T05:57:45.552Z,37.73
2022-09-23T06:00:14.819Z,36.20
2022-09-23T06:02:44.148Z,33.70
2022-09-23T06:05:13.244Z,34.20
2022-09-23T06:07:41.908Z,31.23
2022-09-23T06:10:12.287Z,33.43
2022-09-23T06:12:42.628Z,37.73
2022-09-23T06:15:12.309Z,35.97
2022-09-23T06:17:41.106Z,37.77
2022-09-23T06:20:10.752Z,35.80
2022-09-23T06:22:40.243Z,31.33
2022-09-23T06:25:09.722Z,35.83
2022-09-23T06:27:40.299Z,33.53
2022-09-23T06:30:10.225Z,27.80
2022-09-23T06:32:38.947Z,23.67
2022-09-23T06:35:18.118Z,43.07
2022-09-23T06:37:51.151Z,26.60
2022-09-23T06:40:20.387Z,29.40
2022-09-23T06:42:52.464Z,27.50
2022-09-23T06:45:21.163Z,27.00
2022-09-23T06:47:56.389Z,23.23
2022-09-23T06:50:26.526Z,26.53
2022-09-23T06:52:56.497Z,17.90
2022-09-23T06:55:28.035Z,19.97
2022-09-23T06:58:00.066Z,19.20
2022-09-23T07:00:29.401Z,14.53
2022-09-23T07:02:58.112Z,15.43
2022-09-23T07:05:26.874Z,22.70
2022-09-23T07:07:55.483Z,25.77
2022-09-23T07:10:24.248Z,11.97
2022-09-23T07:12:52.882Z,14.73
2022-09-23T07:15:23.170Z,15.53
2022-09-23T07:17:51.947Z,15.07
2022-09-23T07:20:20.579Z,15.00
2022-09-23T07:22:52.465Z,13.43
2022-09-23T07:25:21.335Z,11.50
2022-09-23T07:27:50.170Z,15.97
2022-09-23T07:30:24.764Z,19.77
2022-09-23T07:32:55.609Z,17.60
2022-09-23T07:35:24.334Z,17.50
2022-09-23T07:37:53.070Z,20.37
2022-09-23T07:40:21.781Z,15.47
2022-09-23T07:42:50.623Z,17.47
2022-09-23T07:45:22.410Z,14.77
2022-09-23T07:47:51.354Z,28.30
2022-09-23T07:50:22.678Z,14.87
2022-09-23T07:52:52.620Z,20.57
2022-09-23T07:55:21.983Z,30.53
2022-09-23T07:58:03.944Z,25.57
2022-09-23T08:00:39.143Z,15.40
2022-09-23T08:03:07.946Z,11.40
2022-09-23T08:05:38.999Z,11.50
2022-09-23T08:08:08.146Z,14.57
2022-09-23T08:10:36.796Z,18.23
2022-09-23T08:13:05.495Z,14.93
2022-09-23T08:15:34.534Z,15.53
2022-09-23T08:18:03.206Z,8.23
2022-09-23T08:20:48.138Z,9.73
2022-09-23T08:23:20.210Z,9.47
2022-09-23T08:25:49.450Z,8.63
2022-09-23T08:28:19.381Z,10.23
2022-09-23T08:30:50.900Z,11.33
2022-09-23T08:33:23.130Z,12.73
2022-09-23T08:35:52.758Z,11.70
2022-09-23T08:38:22.993Z,10.00
2022-09-23T08:40:52.171Z,11.17
2022-09-23T08:43:26.738Z,7.97
2022-09-23T08:45:58.974Z,10.23
2022-09-23T08:48:32.100Z,9.80
2022-09-23T08:51:25.517Z,15.30
2022-09-23T08:53:55.590Z,5.67
2022-09-23T08:56:25.182Z,5.50
2022-09-23T08:59:03.498Z,7.97
2022-09-23T09:01:38.514Z,7.30
2022-09-23T09:04:20.265Z,8.83
2022-09-23T09:06:55.872Z,15.07
2022-09-23T09:09:42.376Z,19.67
2022-09-23T09:12:17.161Z,10.20
2022-09-23T09:14:56.345Z,7.97
2022-09-23T09:17:37.101Z,19.37
2022-09-23T09:20:20.163Z,20.17
2022-09-23T09:22:57.950Z,17.90
2022-09-23T09:25:52.586Z,18.97
2022-09-23T09:28:26.948Z,11.93
2022-09-23T09:30:58.978Z,7.93
2022-09-23T09:33:32.538Z,9.03
2022-09-23T09:36:20.948Z,8.23
2022-09-23T09:38:51.312Z,9.30
2022-09-23T09:41:24.869Z,9.67
2022-09-23T09:44:00.939Z,7.00
2022-09-23T09:46:45.358Z,9.27
2022-09-23T09:49:24.212Z,5.10
2022-09-23T09:52:13.862Z,11.83
2022-09-23T09:54:43.719Z,6.37
2022-09-23T09:57:36.535Z,6.20
2022-09-23T10:00:35.694Z,6.37
2022-09-23T10:03:21.319Z,8.40
2022-09-23T10:05:52.747Z,12.33
2022-09-23T10:08:28.078Z,11.27
2022-09-23T10:11:03.655Z,7.67
2022-09-23T10:13:33.953Z,21.90
2022-09-23T10:16:04.431Z,10.67
2022-09-23T10:18:37.900Z,6.23
2022-09-23T10:21:12.466Z,6.77
2022-09-23T10:23:43.514Z,4.47
2022-09-23T10:26:14.187Z,5.50
2022-09-23T10:28:55.805Z,3.70
2022-09-23T10:31:27.633Z,2.80
2022-09-23T10:34:01.111Z,2.80
2022-09-23T10:36:31.411Z,6.33
2022-09-23T10:39:16.400Z,3.40
2022-09-23T10:42:18.071Z,6.90
2022-09-23T10:45:21.804Z,8.10
2022-09-23T10:47:57.573Z,3.93
2022-09-23T10:50:49.244Z,4.87
2022-09-23T10:53:26.397Z,4.23
2022-09-23T10:56:11.177Z,4.30
2022-09-23T10:59:09.351Z,10.77
2022-09-23T11:01:50.843Z,4.27
2022-09-23T11:04:39.122Z,5.40
2022-09-23T11:07:19.217Z,7.80
2022-09-23T11:10:04.502Z,18.60
2022-09-23T11:12:44.686Z,11.97
2022-09-23T11:15:27.795Z,8.23
2022-09-23T11:18:23.598Z,5.90
2022-09-23T11:21:07.363Z,6.77
2022-09-23T11:23:55.428Z,4.33
2022-09-23T11:26:38.028Z,4.17
2022-09-23T11:29:35.243Z,4.93
2022-09-23T11:32:21.189Z,8.83
2022-09-23T11:35:04.335Z,6.37
2022-09-23T11:37:37.577Z,7.53
2022-09-23T11:40:15.772Z,5.67
2022-09-23T11:42:53.084Z,5.70
2022-09-23T11:45:46.733Z,4.13
2022-09-23T11:48:19.954Z,9.73
2022-09-23T11:50:56.482Z,11.63
2022-09-23T11:53:34.266Z,10.50
2022-09-23T11:56:07.335Z,4.37
2022-09-23T11:58:42.238Z,7.37
2022-09-23T12:01:22.608Z,5.70
2022-09-23T12:04:16.405Z,4.33
2022-09-23T12:06:51.752Z,8.83
2022-09-23T12:09:41.318Z,16.50
2022-09-23T12:12:26.353Z,5.67
2022-09-23T12:15:02.213Z,4.40
2022-09-23T12:17:52.843Z,6.33
2022-09-23T12:21:00.686Z,10.37
2022-09-23T12:23:45.449Z,7.70
2022-09-23T12:26:18.291Z,8.93
2022-09-23T12:28:50.476Z,5.10
2022-09-23T12:31:21.828Z,3.80
2022-09-23T12:33:52.132Z,4.07
2022-09-23T12:36:28.142Z,5.17
2022-09-23T12:39:04.034Z,16.30
2022-09-23T12:41:37.675Z,10.33
2022-09-23T12:44:29.793Z,7.00
2022-09-23T12:47:37.847Z,8.10
2022-09-23T12:50:51.095Z,3.63
2022-09-23T12:54:07.592Z,4.60
2022-09-23T14:14:30.638Z,9.17
2022-09-23T14:17:01.651Z,12.60
2022-09-23T14:19:30.506Z,6.53
2022-09-23T14:21:59.690Z,10.23
2022-09-23T14:24:33.806Z,11.23
2022-09-23T14:27:16.051Z,5.50
2022-09-23T14:29:47.955Z,4.97
2022-09-23T14:32:23.567Z,5.07
2022-09-23T14:34:55.132Z,8.97
2022-09-23T14:37:47.860Z,6.37
2022-09-23T14:40:19.535Z,7.87
2022-09-23T14:42:51.585Z,6.83
2022-09-23T14:45:23.554Z,4.83
2022-09-23T14:47:58.067Z,10.73
2022-09-23T14:50:40.818Z,15.97
2022-09-23T14:53:33.875Z,6.20
2022-09-23T14:56:20.721Z,7.23
2022-09-23T14:58:54.649Z,11.70
2022-09-23T15:01:34.070Z,9.53
2022-09-23T15:04:16.534Z,11.37
2022-09-23T15:06:49.890Z,4.60
2022-09-23T15:09:23.860Z,6.33
2022-09-23T15:12:00.722Z,3.90
2022-09-23T15:14:41.003Z,5.17
2022-09-23T15:17:21.710Z,11.67
2022-09-23T15:19:56.837Z,11.93
2022-09-23T15:22:26.646Z,11.00
2022-09-23T15:25:10.861Z,11.00
2022-09-23T15:27:43.444Z,10.27
2022-09-23T15:30:19.240Z,5.00
2022-09-23T15:32:49.470Z,13.70
2022-09-23T15:35:25.602Z,11.07
2022-09-23T15:37:59.155Z,12.13
2022-09-23T15:40:32.940Z,7.37
2022-09-23T15:43:08.791Z,7.20
2022-09-23T15:45:43.086Z,28.77
2022-09-23T15:48:15.384Z,11.17
2022-09-23T15:51:07.147Z,7.07
2022-09-23T15:53:36.763Z,3.80
2022-09-23T15:56:06.781Z,7.10
2022-09-23T15:58:35.446Z,5.73
2022-09-23T16:01:05.295Z,9.47
2022-09-23T16:03:34.096Z,8.27
2022-09-23T16:06:06.558Z,7.33
2022-09-23T16:08:35.244Z,6.43
2022-09-23T16:11:04.331Z,13.37
2022-09-23T16:13:32.940Z,24.87
2022-09-23T16:16:02.129Z,15.87
2022-09-23T16:18:31.138Z,21.40
2022-09-23T16:20:59.756Z,33.77
2022-09-23T16:23:38.998Z,37.60
2022-09-23T16:26:15.381Z,34.37
2022-09-23T16:28:45.063Z,24.50
2022-09-23T16:31:16.100Z,15.77
2022-09-23T16:33:45.440Z,12.80
2022-09-23T16:36:19.132Z,14.10
2022-09-23T16:38:49.529Z,8.87
2022-09-23T16:41:18.490Z,12.70
2022-09-23T16:43:47.234Z,17.47
2022-09-23T16:46:19.780Z,16.67
2022-09-23T16:48:52.972Z,8.73
2022-09-23T16:51:24.094Z,60.80
2022-09-23T16:53:55.945Z,17.83
2022-09-23T16:56:28.837Z,13.50
2022-09-23T16:58:58.567Z,21.33
2022-09-23T17:01:48.224Z,15.23
2022-09-23T17:04:18.496Z,19.63
2022-09-23T17:06:50.568Z,18.17
2022-09-23T17:09:23.116Z,44.77
2022-09-23T17:12:00.269Z,22.23
2022-09-23T17:14:31.761Z,16.23
2022-09-23T17:17:01.512Z,28.20
2022-09-23T17:19:30.253Z,36.40
2022-09-23T17:21:59.258Z,35.93
2022-09-23T17:24:30.032Z,23.03
2022-09-23T17:26:59.284Z,20.43
2022-09-23T17:29:29.239Z,25.00
2022-09-23T17:31:58.558Z,22.87
2022-09-23T17:34:29.067Z,26.87
2022-09-23T17:37:02.706Z,23.30
2022-09-23T17:39:33.136Z,10.97
2022-09-23T17:42:03.932Z,10.83
2022-09-23T17:44:51.339Z,10.80
2022-09-23T17:47:25.617Z,16.07
2022-09-23T17:49:54.645Z,17.63
2022-09-23T17:52:23.558Z,14.17
2022-09-23T17:54:55.272Z,13.70
2022-09-23T17:57:24.312Z,9.33
2022-09-23T17:59:53.916Z,14.23
2022-09-23T18:02:23.045Z,13.73
2022-09-23T18:04:52.453Z,11.83
2022-09-23T18:07:24.553Z,18.23
2022-09-23T18:09:54.877Z,20.63
2022-09-23T18:12:30.376Z,9.10
2022-09-23T18:15:04.526Z,8.27
2022-09-23T18:17:39.212Z,11.10
2022-09-23T18:20:31.120Z,8.87
2022-09-23T18:23:01.073Z,9.00
2022-09-23T18:25:40.088Z,9.53
2022-09-23T18:28:11.094Z,8.80
2022-09-23T18:30:40.306Z,18.03
2022-09-23T18:33:12.552Z,19.40
2022-09-23T18:35:42.541Z,13.17
2022-09-23T18:38:15.500Z,13.97
2022-09-23T18:40:56.795Z,12.17
2022-09-23T18:43:33.808Z,9.67
2022-09-23T18:46:11.888Z,12.27
2022-09-23T18:48:58.875Z,12.83
2022-09-23T18:51:32.010Z,9.33
2022-09-23T18:54:04.810Z,7.40
2022-09-23T18:56:42.213Z,9.43
2022-09-23T18:59:15.097Z,10.43
2022-09-23T19:01:47.486Z,9.67
2022-09-23T19:04:22.778Z,11.33
2022-09-23T19:06:53.975Z,7.47
2022-09-23T19:09:43.906Z,13.50
2022-09-23T19:12:14.071Z,11.60
2022-09-23T19:14:47.988Z,12.50
2022-09-23T19:17:16.897Z,6.97
2022-09-23T19:19:46.226Z,11.97
2022-09-23T19:22:15.263Z,6.47
2022-09-23T19:24:43.996Z,10.40
2022-09-23T19:27:15.064Z,14.77
2022-09-23T19:29:45.589Z,37.37
2022-09-23T19:32:16.097Z,30.37
2022-09-23T19:34:46.540Z,23.23
2022-09-23T19:37:16.779Z,17.47
2022-09-23T19:39:46.106Z,18.33
2022-09-23T19:42:16.207Z,21.00
2022-09-23T19:44:44.906Z,18.10
2022-09-23T19:47:15.801Z,24.90
2022-09-23T19:49:44.683Z,15.13
2022-09-23T19:52:15.167Z,11.90
2022-09-23T19:54:44.606Z,14.63
2022-09-23T19:57:18.051Z,11.27
2022-09-23T19:59:47.736Z,27.27
2022-09-23T20:02:17.322Z,14.87
2022-09-23T20:04:46.697Z,11.57
2022-09-23T20:07:16.116Z,12.03
2022-09-23T20:09:45.209Z,20.90
2022-09-23T20:12:14.753Z,23.87
2022-09-23T20:14:46.287Z,24.37
2022-09-23T20:17:17.687Z,21.97
2022-09-23T20:19:47.585Z,24.70
2022-09-23T20:22:33.062Z,26.37
2022-09-23T20:25:20.342Z,22.27
2022-09-23T20:27:52.848Z,19.13
2022-09-23T20:30:22.985Z,19.10
2022-09-23T20:32:51.693Z,17.97
2022-09-23T20:35:20.346Z,19.07
2022-09-23T20:37:49.642Z,23.07
2022-09-23T20:40:18.598Z,24.10
2022-09-23T20:42:49.878Z,22.80
2022-09-23T20:45:18.602Z,20.40
2022-09-23T20:47:49.941Z,17.13
2022-09-23T20:50:18.691Z,18.13
2022-09-23T20:52:47.465Z,19.43
2022-09-23T20:55:16.376Z,19.13
2022-09-23T20:57:45.440Z,21.47
2022-09-23T21:00:15.604Z,26.73
2022-09-23T21:02:49.075Z,25.50
2022-09-23T21:05:18.486Z,27.73
2022-09-23T21:07:47.933Z,23.53
2022-09-23T21:10:17.004Z,24.60
2022-09-23T21:12:46.201Z,25.53
2022-09-23T21:15:14.879Z,23.20
2022-09-23T21:17:43.648Z,23.47
2022-09-23T21:20:13.695Z,25.47
2022-09-23T21:22:42.319Z,18.07
2022-09-23T21:25:28.460Z,16.13
2022-09-23T21:27:58.630Z,21.17
2022-09-23T21:30:27.661Z,15.23
2022-09-23T21:32:57.326Z,24.53
2022-09-23T21:35:27.579Z,14.30
2022-09-23T21:37:56.210Z,16.57
2022-09-23T21:40:45.743Z,16.67
2022-09-23T21:43:14.619Z,14.10
2022-09-23T21:45:43.292Z,15.43
2022-09-23T21:48:12.035Z,11.30
2022-09-23T21:50:42.066Z,12.30
2022-09-23T21:53:10.842Z,11.23
2022-09-23T21:55:39.738Z,11.37
2022-09-23T21:58:08.420Z,10.00
2022-09-23T22:00:37.156Z,14.70
2022-09-23T22:03:06.148Z,13.67
2022-09-23T22:05:34.804Z,11.93
2022-09-23T22:08:04.983Z,10.87
2022-09-23T22:10:33.644Z,19.90
2022-09-23T22:13:02.299Z,22.70
2022-09-23T22:15:35.979Z,21.20
2022-09-23T22:18:23.736Z,17.57
2022-09-23T22:20:54.665Z,17.17
2022-09-23T22:23:24.840Z,14.20
2022-09-23T22:26:03.459Z,16.70
2022-09-23T22:29:03.292Z,14.57
2022-09-23T22:31:49.298Z,18.73
2022-09-23T22:34:47.594Z,13.60
2022-09-23T22:37:09.147Z,22.53
2022-09-23T22:39:39.174Z,21.13
2022-09-23T22:42:08.519Z,14.73
2022-09-23T22:44:37.181Z,19.23
2022-09-23T22:47:06.306Z,12.97
2022-09-23T22:49:35.019Z,15.63
2022-09-23T22:52:04.283Z,14.60
2022-09-23T22:54:34.246Z,11.67
2022-09-23T22:57:05.710Z,12.80
2022-09-23T22:59:34.755Z,10.37
2022-09-23T23:02:04.006Z,15.00
2022-09-23T23:04:33.724Z,13.57
2022-09-23T23:07:03.362Z,17.17
2022-09-23T23:09:32.096Z,13.40
2022-09-23T23:12:00.781Z,9.03
2022-09-23T23:14:31.653Z,12.17
2022-09-23T23:17:00.802Z,10.80
2022-09-23T23:19:29.487Z,10.97
2022-09-23T23:21:58.289Z,9.50
2022-09-23T23:24:27.010Z,10.67
2022-09-23T23:26:55.686Z,14.63
2022-09-23T23:29:24.643Z,10.00
2022-09-23T23:31:54.724Z,10.93
2022-09-23T23:34:24.539Z,15.53
2022-09-23T23:36:56.004Z,12.37
2022-09-23T23:39:25.599Z,12.60
2022-09-23T23:41:55.970Z,11.43
2022-09-23T23:44:25.031Z,8.70
2022-09-23T23:46:55.838Z,9.27
2022-09-23T23:49:24.768Z,10.63
2022-09-23T23:51:53.918Z,9.07
2022-09-23T23:54:22.790Z,9.97
2022-09-23T23:56:51.455Z,10.43
2022-09-23T23:59:21.072Z,11.40
